createdAt,value
2019-06-27T00:01:51.967Z,25.10
2019-06-27T00:04:55.760Z,25.20
2019-06-27T00:07:59.121Z,25.10
2019-06-27T00:11:02.531Z,25.10
2019-06-27T00:14:06.159Z,25.20
2019-06-27T00:17:09.763Z,25.00
2019-06-27T00:20:13.204Z,24.90
2019-06-27T00:23:17.005Z,24.80
2019-06-27T00:26:20.277Z,24.80
2019-06-27T00:29:23.235Z,24.80
2019-06-27T00:32:26.173Z,24.80
2019-06-27T00:35:29.143Z,24.70
2019-06-27T00:38:32.111Z,24.80
2019-06-27T00:41:35.186Z,24.70
2019-06-27T00:44:38.148Z,24.60
2019-06-27T00:47:41.097Z,24.50
2019-06-27T00:50:44.654Z,24.60
2019-06-27T00:53:47.977Z,24.40
2019-06-27T00:56:50.939Z,24.50
2019-06-27T00:59:54.664Z,24.50
2019-06-27T01:02:57.624Z,24.40
2019-06-27T01:06:00.997Z,24.40
2019-06-27T01:13:27.346Z,24.40
2019-06-27T01:16:30.759Z,24.20
2019-06-27T01:19:33.824Z,24.20
2019-06-27T01:22:36.746Z,24.40
2019-06-27T01:25:39.719Z,24.10
2019-06-27T01:28:43.325Z,24.00
2019-06-27T01:31:46.837Z,24.10
2019-06-27T01:34:50.006Z,23.90
2019-06-27T01:37:53.301Z,24.00
2019-06-27T01:40:56.275Z,23.90
2019-06-27T01:43:59.257Z,23.90
2019-06-27T01:47:03.393Z,23.90
2019-06-27T01:50:06.471Z,23.80
2019-06-27T01:53:09.700Z,23.90
2019-06-27T01:56:12.652Z,23.90
2019-06-27T01:59:15.920Z,23.90
2019-06-27T02:02:20.267Z,23.80
2019-06-27T02:05:23.355Z,23.80
2019-06-27T02:08:26.670Z,23.80
2019-06-27T02:11:29.961Z,23.70
2019-06-27T02:14:33.668Z,23.70
2019-06-27T02:17:37.033Z,23.70
2019-06-27T02:20:40.390Z,23.60
2019-06-27T02:23:43.356Z,23.50
2019-06-27T02:26:46.308Z,23.50
2019-06-27T02:29:49.287Z,23.50
2019-06-27T02:32:52.686Z,23.20
2019-06-27T02:35:55.663Z,23.60
2019-06-27T02:38:58.610Z,23.60
2019-06-27T02:42:01.542Z,23.40
2019-06-27T02:45:05.400Z,23.50
2019-06-27T02:48:08.693Z,23.40
2019-06-27T02:51:11.718Z,23.40
2019-06-27T02:54:15.364Z,23.40
2019-06-27T02:57:18.622Z,23.40
2019-06-27T03:00:21.800Z,23.30
2019-06-27T03:03:24.718Z,23.40
2019-06-27T03:06:27.710Z,23.40
2019-06-27T03:09:31.075Z,23.30
2019-06-27T03:12:34.483Z,23.20
2019-06-27T03:15:37.426Z,23.20
2019-06-27T03:18:41.019Z,23.30
2019-06-27T03:21:43.980Z,23.20
2019-06-27T03:24:46.911Z,23.20
2019-06-27T03:27:50.950Z,23.00
2019-06-27T03:30:54.223Z,22.90
2019-06-27T03:33:57.806Z,23.00
2019-06-27T03:37:00.767Z,23.10
2019-06-27T03:40:04.797Z,23.10
2019-06-27T03:43:07.749Z,23.00
2019-06-27T03:46:10.716Z,23.00
2019-06-27T03:49:14.342Z,23.00
2019-06-27T03:52:17.613Z,23.00
2019-06-27T03:55:21.006Z,22.90
2019-06-27T03:58:23.956Z,22.90
2019-06-27T04:01:27.541Z,22.90
2019-06-27T04:04:30.824Z,22.90
2019-06-27T04:07:33.927Z,22.90
2019-06-27T04:10:37.138Z,22.80
2019-06-27T04:13:40.114Z,22.80
2019-06-27T04:16:43.077Z,22.80
2019-06-27T04:19:46.066Z,22.90
2019-06-27T04:22:49.633Z,22.80
2019-06-27T04:25:52.883Z,22.80
2019-06-27T04:28:56.448Z,22.80
2019-06-27T04:32:00.023Z,22.70
2019-06-27T04:35:03.446Z,22.80
2019-06-27T04:38:06.409Z,22.70
2019-06-27T04:41:09.990Z,22.80
2019-06-27T04:44:13.262Z,22.80
2019-06-27T04:47:16.210Z,22.70
2019-06-27T04:50:19.171Z,22.70
2019-06-27T04:53:22.481Z,22.80
2019-06-27T04:56:25.911Z,22.70
2019-06-27T04:59:29.189Z,22.70
2019-06-27T05:02:32.142Z,22.80
2019-06-27T05:05:35.092Z,22.70
2019-06-27T05:08:38.453Z,22.70
2019-06-27T05:11:41.421Z,22.60
2019-06-27T05:14:44.408Z,22.40
2019-06-27T05:17:47.466Z,22.70
2019-06-27T05:20:50.551Z,22.70
2019-06-27T05:23:53.526Z,22.70
2019-06-27T05:26:57.530Z,22.70
2019-06-27T05:30:09.653Z,22.80
2019-06-27T05:33:05.852Z,22.80
2019-06-27T05:36:08.798Z,22.80
2019-06-27T05:39:11.886Z,22.80
2019-06-27T05:42:14.794Z,22.70
2019-06-27T05:45:18.479Z,22.70
2019-06-27T05:48:21.797Z,22.70
2019-06-27T05:51:24.767Z,22.70
2019-06-27T05:54:28.384Z,22.70
2019-06-27T05:57:31.692Z,22.60
2019-06-27T06:00:35.141Z,22.60
2019-06-27T06:03:38.391Z,22.80
2019-06-27T06:06:41.399Z,22.70
2019-06-27T06:09:44.807Z,22.70
2019-06-27T06:12:47.787Z,22.60
2019-06-27T06:15:51.095Z,22.60
2019-06-27T06:18:54.436Z,22.70
2019-06-27T06:21:58.039Z,22.70
2019-06-27T06:25:01.027Z,22.60
2019-06-27T06:28:04.559Z,22.70
2019-06-27T06:31:07.512Z,22.50
2019-06-27T06:34:10.466Z,22.50
2019-06-27T06:37:13.427Z,22.30
2019-06-27T06:40:16.902Z,22.50
2019-06-27T06:43:19.872Z,22.40
2019-06-27T06:46:22.827Z,22.30
2019-06-27T06:49:26.208Z,22.30
2019-06-27T06:52:29.191Z,22.40
2019-06-27T06:55:32.777Z,22.50
2019-06-27T06:58:35.764Z,22.50
2019-06-27T07:01:39.612Z,22.50
2019-06-27T07:04:42.680Z,22.50
2019-06-27T07:07:45.649Z,22.50
2019-06-27T07:10:49.319Z,22.50
2019-06-27T07:13:52.950Z,22.70
2019-06-27T07:16:55.908Z,22.70
2019-06-27T07:19:59.217Z,22.90
2019-06-27T07:23:02.715Z,22.90
2019-06-27T07:26:06.052Z,23.00
2019-06-27T07:29:09.019Z,23.00
2019-06-27T07:32:11.952Z,22.50
2019-06-27T07:35:15.344Z,23.20
2019-06-27T07:38:18.287Z,23.40
2019-06-27T07:41:21.815Z,23.20
2019-06-27T07:44:25.191Z,23.00
2019-06-27T07:47:28.387Z,23.30
2019-06-27T07:50:31.324Z,23.50
2019-06-27T07:53:34.576Z,23.60
2019-06-27T07:56:37.528Z,23.50
2019-06-27T07:59:40.946Z,23.60
2019-06-27T08:02:44.283Z,23.30
2019-06-27T08:05:47.532Z,23.50
2019-06-27T08:08:51.585Z,23.60
2019-06-27T08:11:54.679Z,23.70
2019-06-27T08:14:58.068Z,23.70
2019-06-27T08:18:01.400Z,23.90
2019-06-27T08:21:06.084Z,23.80
2019-06-27T08:24:09.381Z,23.90
2019-06-27T08:27:12.306Z,23.90
2019-06-27T08:30:15.378Z,23.80
2019-06-27T08:33:18.356Z,23.80
2019-06-27T08:36:21.642Z,23.70
2019-06-27T08:39:24.590Z,23.90
2019-06-27T08:42:27.964Z,24.20
2019-06-27T08:45:30.895Z,23.90
2019-06-27T08:48:34.208Z,24.10
2019-06-27T08:51:38.194Z,24.40
2019-06-27T08:54:41.522Z,24.40
2019-06-27T08:57:45.052Z,24.50
2019-06-27T09:00:48.069Z,24.50
2019-06-27T09:03:51.013Z,24.70
2019-06-27T09:06:54.289Z,24.80
2019-06-27T09:09:57.539Z,24.80
2019-06-27T09:13:00.815Z,24.80
2019-06-27T09:16:03.772Z,25.00
2019-06-27T09:19:06.817Z,24.80
2019-06-27T09:22:10.165Z,25.00
2019-06-27T09:25:13.650Z,25.20
2019-06-27T09:28:16.885Z,25.30
2019-06-27T09:31:20.865Z,25.30
2019-06-27T09:34:23.770Z,25.40
2019-06-27T09:37:27.037Z,25.20
2019-06-27T09:40:30.444Z,25.20
2019-06-27T09:43:33.415Z,25.20
2019-06-27T09:46:36.429Z,25.40
2019-06-27T09:49:39.716Z,25.20
2019-06-27T09:52:42.662Z,25.30
2019-06-27T09:55:47.537Z,25.50
2019-06-27T09:58:50.915Z,25.60
2019-06-27T10:01:54.170Z,25.70
2019-06-27T10:04:57.131Z,25.90
2019-06-27T10:08:00.815Z,25.90
2019-06-27T10:11:03.826Z,26.00
2019-06-27T10:14:08.663Z,25.90
2019-06-27T10:17:11.610Z,26.00
2019-06-27T10:20:15.765Z,26.10
2019-06-27T10:23:18.687Z,26.00
2019-06-27T10:26:22.330Z,26.00
2019-06-27T10:29:25.651Z,26.00
2019-06-27T10:32:28.596Z,26.10
2019-06-27T10:35:31.953Z,26.30
2019-06-27T10:38:35.325Z,26.40
2019-06-27T10:41:38.278Z,26.50
2019-06-27T10:44:42.370Z,26.50
2019-06-27T10:47:45.607Z,26.40
2019-06-27T10:50:48.563Z,26.70
2019-06-27T10:53:51.929Z,26.90
2019-06-27T10:56:54.906Z,26.90
2019-06-27T10:59:58.277Z,27.00
2019-06-27T11:03:14.300Z,27.10
2019-06-27T11:06:07.102Z,27.10
2019-06-27T11:09:13.493Z,27.10
2019-06-27T11:12:15.345Z,27.20
2019-06-27T11:15:18.414Z,27.20
2019-06-27T11:18:21.706Z,27.40
2019-06-27T11:21:24.697Z,27.30
2019-06-27T11:24:28.032Z,27.50
2019-06-27T11:27:30.974Z,27.40
2019-06-27T11:30:33.943Z,27.30
2019-06-27T11:33:37.484Z,27.40
2019-06-27T11:36:40.803Z,27.60
2019-06-27T11:39:44.097Z,27.70
2019-06-27T11:42:47.696Z,27.70
2019-06-27T11:45:51.696Z,27.90
2019-06-27T11:48:55.062Z,27.90
2019-06-27T11:51:57.993Z,28.00
2019-06-27T11:55:01.446Z,27.90
2019-06-27T11:58:04.586Z,27.90
2019-06-27T12:01:07.532Z,27.90
2019-06-27T12:04:11.121Z,28.00
2019-06-27T12:07:14.051Z,28.00
2019-06-27T12:10:17.929Z,28.20
2019-06-27T12:13:20.970Z,28.20
2019-06-27T12:16:24.056Z,28.40
2019-06-27T12:19:27.015Z,28.50
2019-06-27T12:22:30.214Z,28.30
2019-06-27T12:25:33.437Z,28.30
2019-06-27T12:28:36.379Z,28.20
2019-06-27T12:31:39.335Z,28.50
2019-06-27T12:34:42.247Z,28.60
2019-06-27T12:37:45.198Z,28.70
2019-06-27T12:40:48.152Z,28.60
2019-06-27T12:43:51.093Z,28.50
2019-06-27T12:46:54.432Z,28.60
2019-06-27T12:50:02.675Z,28.70
2019-06-27T12:53:03.574Z,28.70
2019-06-27T12:56:06.898Z,28.70
2019-06-27T12:59:09.943Z,28.70
2019-06-27T13:02:13.422Z,28.70
2019-06-27T13:05:20.288Z,28.90
2019-06-27T13:08:23.732Z,28.90
2019-06-27T13:11:27.095Z,28.90
2019-06-27T13:14:30.300Z,29.00
2019-06-27T13:17:33.572Z,28.90
2019-06-27T13:20:37.613Z,29.00
2019-06-27T13:23:41.296Z,29.10
2019-06-27T13:26:44.574Z,29.20
2019-06-27T13:29:47.503Z,29.10
2019-06-27T13:32:50.445Z,29.20
2019-06-27T13:35:53.394Z,29.20
2019-06-27T13:38:56.599Z,29.30
2019-06-27T13:41:59.990Z,29.40
2019-06-27T13:45:03.585Z,29.40
2019-06-27T13:48:06.923Z,29.40
2019-06-27T13:51:10.486Z,29.30
2019-06-27T13:54:13.582Z,29.30
2019-06-27T13:57:17.421Z,29.40
2019-06-27T14:00:35.504Z,29.40
2019-06-27T14:03:48.615Z,29.70
2019-06-27T14:06:43.761Z,29.70
2019-06-27T14:09:53.822Z,29.70
2019-06-27T14:12:52.130Z,29.80
2019-06-27T14:15:55.416Z,29.80
2019-06-27T14:18:58.533Z,29.70
2019-06-27T14:22:01.572Z,29.50
2019-06-27T14:25:04.871Z,29.50
2019-06-27T14:28:07.926Z,29.20
2019-06-27T14:31:10.964Z,29.00
2019-06-27T14:34:14.274Z,29.00
2019-06-27T14:37:17.200Z,28.90
2019-06-27T14:40:21.178Z,29.10
2019-06-27T14:43:24.097Z,29.10
2019-06-27T14:46:27.047Z,29.30
2019-06-27T14:49:30.296Z,29.20
2019-06-27T14:52:35.104Z,29.10
2019-06-27T14:55:38.249Z,29.20
2019-06-27T14:58:41.493Z,29.40
2019-06-27T15:01:44.614Z,29.30
2019-06-27T15:04:47.587Z,29.20
2019-06-27T15:07:50.542Z,29.20
2019-06-27T15:10:53.894Z,29.00
2019-06-27T15:13:58.549Z,29.10
2019-06-27T15:17:01.819Z,29.10
2019-06-27T15:20:05.210Z,29.00
2019-06-27T15:23:08.164Z,29.00
2019-06-27T15:26:13.434Z,29.00
2019-06-27T15:29:16.703Z,28.90
2019-06-27T15:32:21.165Z,28.90
2019-06-27T15:35:24.109Z,28.90
2019-06-27T15:38:27.037Z,28.90
2019-06-27T15:41:29.954Z,28.80
2019-06-27T15:44:32.902Z,28.80
2019-06-27T15:47:36.552Z,28.70
2019-06-27T15:50:39.781Z,28.70
2019-06-27T15:53:42.789Z,28.60
2019-06-27T15:56:45.788Z,28.50
2019-06-27T15:59:48.749Z,28.40
2019-06-27T16:02:52.142Z,28.30
2019-06-27T16:06:08.599Z,28.20
2019-06-27T16:09:00.361Z,28.10
2019-06-27T16:12:03.292Z,28.00
2019-06-27T16:15:06.919Z,27.80
2019-06-27T16:18:09.884Z,27.70
2019-06-27T16:21:12.859Z,27.60
2019-06-27T16:24:16.150Z,27.40
2019-06-27T16:27:19.082Z,27.40
2019-06-27T16:30:22.425Z,27.40
2019-06-27T16:33:26.382Z,27.30
2019-06-27T16:36:29.632Z,27.30
2019-06-27T16:39:32.930Z,27.10
2019-06-27T16:42:36.394Z,27.00
2019-06-27T16:45:40.744Z,27.10
2019-06-27T16:48:44.210Z,27.00
2019-06-27T16:51:47.977Z,26.90
2019-06-27T16:54:50.910Z,26.90
2019-06-27T16:57:53.878Z,26.90
2019-06-27T17:00:56.815Z,26.80
2019-06-27T17:03:59.840Z,26.80
2019-06-27T17:07:02.813Z,26.90
2019-06-27T17:10:06.901Z,26.90
2019-06-27T17:13:10.161Z,26.90
2019-06-27T17:16:13.148Z,26.90
2019-06-27T17:19:16.049Z,26.80
2019-06-27T17:22:19.312Z,27.00
2019-06-27T17:25:22.337Z,27.00
2019-06-27T17:28:25.576Z,26.90
2019-06-27T17:31:28.536Z,27.00
2019-06-27T17:34:31.477Z,27.00
2019-06-27T17:37:34.418Z,27.30
2019-06-27T17:40:37.735Z,27.30
2019-06-27T17:43:41.644Z,26.90
2019-06-27T17:46:46.542Z,26.70
2019-06-27T17:49:49.826Z,26.50
2019-06-27T17:52:53.681Z,26.40
2019-06-27T17:55:57.636Z,26.30
2019-06-27T17:59:00.973Z,26.10
2019-06-27T18:02:04.451Z,26.00
2019-06-27T18:05:07.709Z,25.90
2019-06-27T18:08:13.605Z,25.90
2019-06-27T18:11:16.692Z,25.90
2019-06-27T18:14:19.885Z,25.90
2019-06-27T18:17:33.101Z,25.80
2019-06-27T18:20:27.921Z,25.80
2019-06-27T18:23:31.063Z,25.80
2019-06-27T18:26:34.351Z,25.70
2019-06-27T18:29:37.657Z,25.60
2019-06-27T18:32:41.062Z,25.60
2019-06-27T18:35:44.186Z,25.50
2019-06-27T18:38:47.304Z,25.50
2019-06-27T18:41:50.322Z,25.60
2019-06-27T18:44:53.875Z,25.40
2019-06-27T18:47:56.914Z,25.40
2019-06-27T18:51:00.030Z,25.40
2019-06-27T18:54:03.637Z,25.40
2019-06-27T18:57:06.659Z,25.30
2019-06-27T19:00:09.919Z,25.30
2019-06-27T19:03:12.987Z,25.20
2019-06-27T19:06:16.282Z,25.10
2019-06-27T19:09:19.705Z,25.20
2019-06-27T19:12:23.159Z,25.10
2019-06-27T19:15:26.584Z,25.10
2019-06-27T19:18:49.305Z,25.00
2019-06-27T19:22:15.104Z,25.00
2019-06-27T19:25:28.963Z,25.00
2019-06-27T19:28:32.623Z,24.90
2019-06-27T19:31:36.081Z,24.80
2019-06-27T19:34:39.025Z,24.80
2019-06-27T19:37:42.796Z,24.80
2019-06-27T19:40:45.723Z,24.80
2019-06-27T19:43:57.122Z,24.80
2019-06-27T19:47:00.520Z,24.70
2019-06-27T19:50:05.134Z,24.70
2019-06-27T19:53:08.719Z,24.70
2019-06-27T19:56:11.751Z,24.70
2019-06-27T19:59:16.817Z,24.60
2019-06-27T20:02:20.098Z,24.60
2019-06-27T20:05:23.090Z,24.50
2019-06-27T20:08:26.027Z,24.50
2019-06-27T20:11:29.083Z,24.60
2019-06-27T20:14:32.178Z,24.40
2019-06-27T20:17:35.466Z,24.40
2019-06-27T20:20:38.999Z,24.70
2019-06-27T20:23:42.009Z,24.70
2019-06-27T20:26:44.980Z,24.60
2019-06-27T20:29:48.025Z,24.60
2019-06-27T20:32:51.788Z,24.60
2019-06-27T20:35:54.845Z,24.60
2019-06-27T20:38:58.253Z,24.60
2019-06-27T20:42:01.282Z,24.40
2019-06-27T20:54:01.633Z,24.50
2019-06-27T20:57:05.800Z,24.40
2019-06-27T21:00:12.223Z,24.40
2019-06-27T21:03:16.126Z,24.30
2019-06-27T21:06:32.179Z,24.20
2019-06-27T21:09:47.826Z,23.90
2019-06-27T21:13:04.202Z,24.20
2019-06-27T21:16:16.432Z,24.40
2019-06-27T21:19:20.206Z,24.00
2019-06-27T21:22:32.591Z,24.00
2019-06-27T21:26:01.914Z,23.90
2019-06-27T21:29:24.192Z,23.90
2019-06-27T21:32:34.171Z,23.90
2019-06-27T21:35:54.033Z,23.90
2019-06-27T21:39:07.493Z,23.90
2019-06-27T21:42:04.286Z,23.70
2019-06-27T21:45:09.113Z,23.70
2019-06-27T21:48:25.293Z,23.60
2019-06-27T21:51:49.091Z,23.60
2019-06-27T21:56:14.640Z,23.60
2019-06-27T22:03:46.233Z,23.50
2019-06-27T22:06:54.170Z,23.50
2019-06-27T22:11:04.116Z,23.40
2019-06-27T22:14:07.306Z,23.40
2019-06-27T22:17:12.490Z,23.30
2019-06-27T22:20:17.583Z,23.30
2019-06-27T22:23:21.103Z,23.20
2019-06-27T22:26:24.335Z,23.20
2019-06-27T22:29:27.800Z,23.00
2019-06-27T22:32:31.231Z,22.90
2019-06-27T22:35:35.116Z,23.00
2019-06-27T22:39:00.204Z,22.90
2019-06-27T22:42:24.598Z,22.90
2019-06-27T22:45:50.500Z,22.90
2019-06-27T22:49:03.699Z,23.00
2019-06-27T22:52:49.955Z,22.80
2019-06-27T22:56:41.955Z,22.80
2019-06-27T23:14:49.719Z,22.50
2019-06-27T23:18:18.050Z,22.70
2019-06-27T23:21:32.853Z,22.40
2019-06-27T23:24:58.494Z,22.50
2019-06-27T23:28:09.602Z,22.20
2019-06-27T23:31:24.163Z,22.40
2019-06-27T23:34:29.968Z,22.20
2019-06-27T23:37:33.862Z,22.10
2019-06-27T23:40:37.844Z,21.90
2019-06-27T23:43:44.484Z,22.00
2019-06-27T23:46:48.163Z,22.10
2019-06-27T23:49:52.526Z,22.00
2019-06-27T23:53:00.132Z,22.00
2019-06-27T23:56:10.125Z,22.00
2019-06-27T23:59:14.051Z,21.90
